createdAt,value
2023-04-11T00:00:34.360Z,8.74
2023-04-11T00:03:03.971Z,8.65
2023-04-11T00:05:33.525Z,8.67
2023-04-11T00:08:00.134Z,8.63
2023-04-11T00:10:26.636Z,8.65
2023-04-11T00:12:56.910Z,8.63
2023-04-11T00:15:24.742Z,8.65
2023-04-11T00:17:51.444Z,8.64
2023-04-11T00:20:17.998Z,8.42
2023-04-11T00:22:44.582Z,8.36
2023-04-11T00:25:11.355Z,8.30
2023-04-11T00:27:37.977Z,8.23
2023-04-11T00:30:06.858Z,8.18
2023-04-11T00:32:34.174Z,8.31
2023-04-11T00:35:00.741Z,8.41
2023-04-11T00:37:27.275Z,8.45
2023-04-11T00:39:56.072Z,8.46
2023-04-11T00:42:22.938Z,8.55
2023-04-11T00:44:49.670Z,8.55
2023-04-11T00:47:16.369Z,8.59
2023-04-11T00:49:43.278Z,8.61
2023-04-11T00:52:10.310Z,8.54
2023-04-11T00:54:36.902Z,8.61
2023-04-11T00:57:05.856Z,8.65
2023-04-11T00:59:33.227Z,8.66
2023-04-11T01:02:00.435Z,8.67
2023-04-11T01:04:27.166Z,8.61
2023-04-11T01:07:04.254Z,8.64
2023-04-11T01:09:33.235Z,8.62
2023-04-11T01:12:01.661Z,8.68
2023-04-11T01:14:28.748Z,8.62
2023-04-11T01:16:56.784Z,8.55
2023-04-11T01:19:26.025Z,8.47
2023-04-11T01:21:54.195Z,8.41
2023-04-11T01:24:21.047Z,8.39
2023-04-11T01:26:47.601Z,8.26
2023-04-11T01:29:14.117Z,8.21
2023-04-11T01:31:41.020Z,8.10
2023-04-11T01:34:07.982Z,8.24
2023-04-11T01:36:34.815Z,8.32
2023-04-11T01:39:01.595Z,8.31
2023-04-11T01:41:30.387Z,8.38
2023-04-11T01:43:57.239Z,8.40
2023-04-11T01:46:24.635Z,8.39
2023-04-11T01:48:55.646Z,8.36
2023-04-11T01:51:22.386Z,8.31
2023-04-11T01:53:48.950Z,8.33
2023-04-11T01:56:15.651Z,8.21
2023-04-11T01:58:42.398Z,8.21
2023-04-11T02:01:08.957Z,8.08
2023-04-11T02:03:37.219Z,8.18
2023-04-11T02:06:04.174Z,8.08
2023-04-11T02:08:30.984Z,8.16
2023-04-11T02:10:57.546Z,8.21
2023-04-11T02:13:24.090Z,8.23
2023-04-11T02:15:50.670Z,8.21
2023-04-11T02:18:17.231Z,8.30
2023-04-11T02:20:43.834Z,8.27
2023-04-11T02:23:11.152Z,8.25
2023-04-11T02:25:39.061Z,8.31
2023-04-11T02:28:07.996Z,8.35
2023-04-11T02:30:34.770Z,8.24
2023-04-11T02:33:01.953Z,8.22
2023-04-11T02:35:28.581Z,8.33
2023-04-11T02:37:55.108Z,8.23
2023-04-11T02:40:21.617Z,8.23
2023-04-11T02:42:48.213Z,8.29
2023-04-11T02:45:14.709Z,8.22
2023-04-11T02:47:41.465Z,8.29
2023-04-11T02:50:08.776Z,8.29
2023-04-11T02:52:35.355Z,8.33
2023-04-11T02:55:01.851Z,8.29
2023-04-11T02:57:28.333Z,8.26
2023-04-11T02:59:54.883Z,8.29
2023-04-11T03:02:25.557Z,8.21
2023-04-11T03:04:52.282Z,8.22
2023-04-11T03:07:18.778Z,8.15
2023-04-11T03:09:45.337Z,8.30
2023-04-11T03:12:11.882Z,8.33
2023-04-11T03:14:38.416Z,8.29
2023-04-11T03:17:04.903Z,8.35
2023-04-11T03:19:31.460Z,8.32
2023-04-11T03:21:57.946Z,8.23
2023-04-11T03:24:24.474Z,8.22
2023-04-11T03:26:50.959Z,8.27
2023-04-11T03:29:17.583Z,8.25
2023-04-11T03:31:44.619Z,8.23
2023-04-11T03:34:11.242Z,8.20
2023-04-11T03:36:37.757Z,8.07
2023-04-11T03:39:04.380Z,8.06
2023-04-11T03:41:30.929Z,8.03
2023-04-11T03:43:57.510Z,8.09
2023-04-11T03:46:24.097Z,8.00
2023-04-11T03:48:50.688Z,8.02
2023-04-11T03:51:17.377Z,7.92
2023-04-11T03:53:43.953Z,8.00
2023-04-11T03:56:10.552Z,8.03
2023-04-11T03:58:37.217Z,8.02
2023-04-11T04:01:03.924Z,8.03
2023-04-11T04:03:30.711Z,8.02
2023-04-11T04:05:57.401Z,8.01
2023-04-11T04:08:24.038Z,8.04
2023-04-11T04:10:50.547Z,8.09
2023-04-11T04:13:17.072Z,8.10
2023-04-11T04:15:43.628Z,8.15
2023-04-11T04:18:10.408Z,8.19
2023-04-11T04:20:37.055Z,8.18
2023-04-11T04:23:06.167Z,8.22
2023-04-11T04:25:32.691Z,8.21
2023-04-11T04:28:00.996Z,8.22
2023-04-11T04:30:29.038Z,8.23
2023-04-11T04:33:01.709Z,8.31
2023-04-11T04:35:28.331Z,8.21
2023-04-11T04:37:55.141Z,8.15
2023-04-11T04:40:22.590Z,8.22
2023-04-11T04:42:58.797Z,8.10
2023-04-11T04:45:26.468Z,8.10
2023-04-11T04:47:53.194Z,7.90
2023-04-11T04:50:20.656Z,7.94
2023-04-11T04:52:47.286Z,7.92
2023-04-11T04:55:14.419Z,7.93
2023-04-11T04:57:41.100Z,7.83
2023-04-11T05:00:09.897Z,7.93
2023-04-11T05:02:38.042Z,7.89
2023-04-11T05:05:05.147Z,7.85
2023-04-11T05:07:31.992Z,7.85
2023-04-11T05:09:58.490Z,7.76
2023-04-11T05:12:27.301Z,7.82
2023-04-11T05:14:55.546Z,7.92
2023-04-11T05:17:25.233Z,7.92
2023-04-11T05:19:52.529Z,8.07
2023-04-11T05:22:19.018Z,8.08
2023-04-11T05:24:45.532Z,8.07
2023-04-11T05:27:13.461Z,8.19
2023-04-11T05:29:40.564Z,8.22
2023-04-11T05:32:07.090Z,8.31
2023-04-11T05:34:34.512Z,8.37
2023-04-11T05:37:01.527Z,8.43
2023-04-11T05:39:28.055Z,8.50
2023-04-11T05:41:54.761Z,8.58
2023-04-11T05:44:21.361Z,8.63
2023-04-11T05:46:47.922Z,8.67
2023-04-11T05:49:14.468Z,8.71
2023-04-11T05:51:41.108Z,8.71
2023-04-11T05:54:07.674Z,8.77
2023-04-11T05:56:35.349Z,8.78
2023-04-11T05:59:01.985Z,8.77
2023-04-11T06:01:30.379Z,8.89
2023-04-11T06:03:57.712Z,8.84
2023-04-11T06:06:24.637Z,8.85
2023-04-11T06:08:51.396Z,8.92
2023-04-11T06:11:17.968Z,8.87
2023-04-11T06:13:44.494Z,9.04
2023-04-11T06:16:11.109Z,9.08
2023-04-11T06:18:37.709Z,9.00
2023-04-11T06:21:04.437Z,8.96
2023-04-11T06:23:31.272Z,9.11
2023-04-11T06:25:57.792Z,9.09
2023-04-11T06:28:24.317Z,9.11
2023-04-11T06:30:51.126Z,9.13
2023-04-11T06:33:17.664Z,9.25
2023-04-11T06:35:44.214Z,9.29
2023-04-11T06:38:10.779Z,9.35
2023-04-11T06:40:37.290Z,9.36
2023-04-11T06:43:03.848Z,9.44
2023-04-11T06:45:30.360Z,9.56
2023-04-11T06:47:56.947Z,9.65
2023-04-11T06:50:23.463Z,9.70
2023-04-11T06:52:50.100Z,9.66
2023-04-11T06:55:16.809Z,9.69
2023-04-11T06:57:44.074Z,9.69
2023-04-11T07:00:12.914Z,9.78
2023-04-11T07:02:39.768Z,9.74
2023-04-11T07:05:06.822Z,9.75
2023-04-11T07:07:33.455Z,9.78
2023-04-11T07:09:59.987Z,9.84
2023-04-11T07:12:26.520Z,9.76
2023-04-11T07:14:53.095Z,9.78
2023-04-11T07:17:19.604Z,9.73
2023-04-11T07:19:46.776Z,9.68
2023-04-11T07:22:13.289Z,9.58
2023-04-11T07:24:39.814Z,9.36
2023-04-11T07:27:06.913Z,9.11
2023-04-11T07:29:33.466Z,8.83
2023-04-11T07:32:00.051Z,8.99
2023-04-11T07:34:26.697Z,8.87
2023-04-11T07:36:53.286Z,8.74
2023-04-11T07:39:19.848Z,8.83
2023-04-11T07:41:46.485Z,8.53
2023-04-11T07:44:13.029Z,8.83
2023-04-11T07:46:39.576Z,8.66
2023-04-11T07:49:06.187Z,8.98
2023-04-11T07:51:33.184Z,8.81
2023-04-11T07:53:59.763Z,9.07
2023-04-11T07:56:26.383Z,9.15
2023-04-11T07:58:52.894Z,9.15
2023-04-11T08:01:23.977Z,9.30
2023-04-11T08:03:53.271Z,9.18
2023-04-11T08:06:20.099Z,9.10
2023-04-11T08:08:47.903Z,9.38
2023-04-11T08:11:15.692Z,9.17
2023-04-11T08:13:43.198Z,9.06
2023-04-11T08:16:11.888Z,9.03
2023-04-11T08:18:42.263Z,9.22
2023-04-11T08:21:11.508Z,8.92
2023-04-11T08:23:42.688Z,8.90
2023-04-11T08:26:09.978Z,8.73
2023-04-11T08:28:36.575Z,8.53
2023-04-11T08:31:05.156Z,8.64
2023-04-11T08:33:31.716Z,8.77
2023-04-11T08:35:58.308Z,8.68
2023-04-11T08:38:24.838Z,8.57
2023-04-11T08:40:51.631Z,8.54
2023-04-11T08:43:18.400Z,8.55
2023-04-11T08:45:44.970Z,8.70
2023-04-11T08:48:12.620Z,8.87
2023-04-11T08:50:41.412Z,9.04
2023-04-11T08:53:08.814Z,8.88
2023-04-11T08:55:36.114Z,9.02
2023-04-11T08:58:03.823Z,8.85
2023-04-11T09:00:32.700Z,8.76
2023-04-11T09:03:04.378Z,8.65
2023-04-11T09:05:39.130Z,8.61
2023-04-11T09:08:13.629Z,8.72
2023-04-11T09:10:42.886Z,8.96
2023-04-11T09:13:28.100Z,8.94
2023-04-11T09:16:14.864Z,8.64
2023-04-11T09:18:47.040Z,8.66
2023-04-11T09:21:16.243Z,8.77
2023-04-11T09:23:43.474Z,8.83
2023-04-11T09:26:11.216Z,8.89
2023-04-11T09:28:44.930Z,9.11
2023-04-11T09:31:13.553Z,9.42
2023-04-11T09:33:52.818Z,9.48
2023-04-11T09:36:21.244Z,9.39
2023-04-11T09:38:47.989Z,9.36
2023-04-11T09:41:15.256Z,9.57
2023-04-11T09:43:52.714Z,9.54
2023-04-11T09:46:21.484Z,9.54
2023-04-11T09:48:49.911Z,9.86
2023-04-11T09:51:28.030Z,9.75
2023-04-11T09:54:02.317Z,9.65
2023-04-11T09:56:30.712Z,9.64
2023-04-11T09:58:57.689Z,9.63
2023-04-11T10:01:25.063Z,9.61
2023-04-11T10:03:53.022Z,9.49
2023-04-11T10:06:31.849Z,9.44
2023-04-11T10:09:11.296Z,9.52
2023-04-11T10:11:42.092Z,9.80
2023-04-11T10:14:08.683Z,10.03
2023-04-11T10:16:35.327Z,10.20
2023-04-11T10:19:02.036Z,10.11
2023-04-11T10:21:32.926Z,9.99
2023-04-11T10:24:18.234Z,10.25
2023-04-11T10:26:50.190Z,10.28
2023-04-11T10:29:29.266Z,10.37
2023-04-11T10:32:14.661Z,10.27
2023-04-11T10:35:19.265Z,10.55
2023-04-11T10:37:46.023Z,10.06
2023-04-11T10:40:12.615Z,10.23
2023-04-11T10:42:44.054Z,10.29
2023-04-11T10:45:30.022Z,10.52
2023-04-11T10:47:56.700Z,10.54
2023-04-11T10:50:26.546Z,10.76
2023-04-11T10:53:00.604Z,10.84
2023-04-11T10:55:29.086Z,11.78
2023-04-11T10:58:22.427Z,12.40
2023-04-11T11:00:52.331Z,12.43
2023-04-11T11:03:22.967Z,11.97
2023-04-11T11:06:05.605Z,12.70
2023-04-11T11:08:41.922Z,11.96
2023-04-11T11:11:10.908Z,11.39
2023-04-11T11:13:44.535Z,11.64
2023-04-11T11:16:16.694Z,11.53
2023-04-11T11:18:48.218Z,12.63
2023-04-11T11:21:24.602Z,12.09
2023-04-11T11:24:01.138Z,12.19
2023-04-11T11:26:40.559Z,12.09
2023-04-11T11:29:08.182Z,12.54
2023-04-11T11:31:39.633Z,12.90
2023-04-11T11:34:22.249Z,14.02
2023-04-11T11:36:50.730Z,13.30
2023-04-11T11:39:17.891Z,13.34
2023-04-11T11:41:44.617Z,12.81
2023-04-11T11:44:22.943Z,14.28
2023-04-11T11:47:06.576Z,13.23
2023-04-11T11:49:52.915Z,13.21
2023-04-11T11:52:41.388Z,12.91
2023-04-11T11:55:17.901Z,12.47
2023-04-11T11:57:49.140Z,12.66
2023-04-11T12:00:24.144Z,12.78
2023-04-11T12:02:55.041Z,12.36
2023-04-11T12:05:24.800Z,12.36
2023-04-11T12:07:58.687Z,11.68
2023-04-11T12:10:35.426Z,11.48
2023-04-11T12:13:02.015Z,11.45
2023-04-11T12:15:28.641Z,11.97
2023-04-11T12:17:55.654Z,12.38
2023-04-11T12:20:24.037Z,12.13
2023-04-11T12:22:52.284Z,13.31
2023-04-11T12:25:20.873Z,13.28
2023-04-11T12:27:48.556Z,12.88
2023-04-11T12:30:18.215Z,13.37
2023-04-11T12:32:45.066Z,13.16
2023-04-11T12:35:13.018Z,13.71
2023-04-11T12:37:39.928Z,13.35
2023-04-11T12:40:10.934Z,14.24
2023-04-11T12:45:11.615Z,15.13
2023-04-11T12:47:38.325Z,15.53
2023-04-11T12:50:06.494Z,14.72
2023-04-11T12:52:34.082Z,14.23
2023-04-11T12:55:01.031Z,13.67
2023-04-11T12:57:28.258Z,13.34
2023-04-11T12:59:54.849Z,13.83
2023-04-11T13:02:21.588Z,13.82
2023-04-11T13:04:53.510Z,13.97
2023-04-11T13:07:21.391Z,14.04
2023-04-11T13:09:50.859Z,13.36
2023-04-11T13:12:17.592Z,13.07
2023-04-11T13:14:44.154Z,13.66
2023-04-11T13:17:10.737Z,14.00
2023-04-11T13:19:37.294Z,14.29
2023-04-11T13:22:04.114Z,13.80
2023-04-11T13:24:32.120Z,13.74
2023-04-11T13:26:59.162Z,13.04
2023-04-11T13:29:25.940Z,13.50
2023-04-11T13:31:52.639Z,13.63
2023-04-11T13:34:19.582Z,13.52
2023-04-11T13:36:46.433Z,13.21
2023-04-11T13:39:13.669Z,12.88
2023-04-11T13:41:40.209Z,13.83
2023-04-11T13:44:06.724Z,13.34
2023-04-11T13:46:33.361Z,13.52
2023-04-11T13:49:00.596Z,13.46
2023-04-11T13:51:27.640Z,14.03
2023-04-11T13:53:54.152Z,14.05
2023-04-11T13:56:20.761Z,13.80
2023-04-11T13:58:47.283Z,14.38
2023-04-11T14:01:13.962Z,14.18
2023-04-11T14:03:43.047Z,13.93
2023-04-11T14:06:09.772Z,13.66
2023-04-11T14:08:37.057Z,13.92
2023-04-11T14:11:06.946Z,13.66
2023-04-11T14:13:33.560Z,13.36
2023-04-11T14:16:08.685Z,13.37
2023-04-11T14:18:36.304Z,13.34
2023-04-11T14:21:07.344Z,13.55
2023-04-11T14:23:34.147Z,13.66
2023-04-11T14:26:00.766Z,14.09
2023-04-11T14:28:27.311Z,14.11
2023-04-11T14:30:54.326Z,13.99
2023-04-11T14:33:20.939Z,13.60
2023-04-11T14:35:47.531Z,13.51
2023-04-11T14:38:17.627Z,13.81
2023-04-11T14:40:44.357Z,13.85
2023-04-11T14:43:11.512Z,13.40
2023-04-11T14:45:38.156Z,12.96
2023-04-11T14:48:05.067Z,12.88
2023-04-11T14:50:31.685Z,12.80
2023-04-11T14:52:58.620Z,12.81
2023-04-11T14:55:25.137Z,12.62
2023-04-11T14:57:54.163Z,12.75
2023-04-11T15:00:22.038Z,12.57
2023-04-11T15:02:52.777Z,12.36
2023-04-11T15:05:20.644Z,11.81
2023-04-11T15:07:48.417Z,12.10
2023-04-11T15:10:17.157Z,12.34
2023-04-11T15:12:43.755Z,12.24
2023-04-11T15:15:11.332Z,12.28
2023-04-11T15:17:46.583Z,12.62
2023-04-11T15:20:17.037Z,12.64
2023-04-11T15:22:45.293Z,12.84
2023-04-11T15:25:14.643Z,12.82
2023-04-11T15:27:42.086Z,12.83
2023-04-11T15:30:10.171Z,12.72
2023-04-11T15:32:42.896Z,12.70
2023-04-11T15:35:10.045Z,12.73
2023-04-11T15:37:36.536Z,12.70
2023-04-11T15:40:06.317Z,12.58
2023-04-11T15:42:35.537Z,12.55
2023-04-11T15:45:02.455Z,12.30
2023-04-11T15:47:29.382Z,12.42
2023-04-11T15:49:56.408Z,12.08
2023-04-11T15:52:22.922Z,12.24
2023-04-11T15:54:49.443Z,12.45
2023-04-11T15:57:18.378Z,12.75
2023-04-11T15:59:45.195Z,12.63
2023-04-11T16:02:12.180Z,12.81
2023-04-11T16:04:39.208Z,12.88
2023-04-11T16:07:06.728Z,12.89
2023-04-11T16:09:33.973Z,12.68
2023-04-11T16:12:01.453Z,12.69
2023-04-11T16:14:29.221Z,12.86
2023-04-11T16:16:56.689Z,12.41
2023-04-11T16:19:23.868Z,12.53
2023-04-11T16:21:50.739Z,12.28
2023-04-11T16:24:18.992Z,12.08
2023-04-11T16:26:45.649Z,12.17
2023-04-11T16:29:12.330Z,12.40
2023-04-11T16:31:38.982Z,12.41
2023-04-11T16:34:05.510Z,12.17
2023-04-11T16:36:32.375Z,12.14
2023-04-11T16:38:58.965Z,12.20
2023-04-11T16:41:25.524Z,12.25
2023-04-11T16:43:52.142Z,12.20
2023-04-11T16:46:18.708Z,12.25
2023-04-11T16:48:45.330Z,12.18
2023-04-11T16:51:12.619Z,12.06
2023-04-11T16:53:40.029Z,12.13
2023-04-11T16:56:06.900Z,12.09
2023-04-11T16:58:33.833Z,11.91
2023-04-11T17:01:00.859Z,11.76
2023-04-11T17:03:27.558Z,11.73
2023-04-11T17:05:54.665Z,11.70
2023-04-11T17:08:21.441Z,11.62
2023-04-11T17:10:48.009Z,11.63
2023-04-11T17:13:16.110Z,11.45
2023-04-11T17:15:42.647Z,11.56
2023-04-11T17:18:09.231Z,11.43
2023-04-11T17:20:36.128Z,11.39
2023-04-11T17:23:02.712Z,11.33
2023-04-11T17:25:30.214Z,11.29
2023-04-11T17:27:57.633Z,11.16
2023-04-11T17:30:24.282Z,11.03
2023-04-11T17:32:50.896Z,10.95
2023-04-11T17:35:17.587Z,10.92
2023-04-11T17:37:44.148Z,10.89
2023-04-11T17:40:12.572Z,10.80
2023-04-11T17:42:39.275Z,10.74
2023-04-11T17:45:17.628Z,10.70
2023-04-11T17:47:45.161Z,10.70
2023-04-11T17:50:13.311Z,10.65
2023-04-11T17:52:45.030Z,10.55
2023-04-11T17:55:13.413Z,10.45
2023-04-11T17:57:40.480Z,10.45
2023-04-11T18:00:39.014Z,10.35
2023-04-11T18:03:11.842Z,10.33
2023-04-11T18:05:38.471Z,10.34
2023-04-11T18:08:05.206Z,10.22
2023-04-11T18:10:31.790Z,10.23
2023-04-11T18:12:58.729Z,10.19
2023-04-11T18:15:26.641Z,10.15
2023-04-11T18:17:53.463Z,10.09
2023-04-11T18:20:20.095Z,10.12
2023-04-11T18:22:57.719Z,10.06
2023-04-11T18:25:24.629Z,9.97
2023-04-11T18:27:51.301Z,9.82
2023-04-11T18:30:17.862Z,9.73
2023-04-11T18:32:49.390Z,9.72
2023-04-11T18:35:17.200Z,9.63
2023-04-11T18:37:44.113Z,9.42
2023-04-11T18:40:14.111Z,9.40
2023-04-11T18:42:45.814Z,9.34
2023-04-11T18:45:13.833Z,9.21
2023-04-11T18:47:44.273Z,9.13
2023-04-11T18:50:11.428Z,8.96
2023-04-11T18:52:38.177Z,8.80
2023-04-11T18:55:05.086Z,8.79
2023-04-11T18:57:34.621Z,8.78
2023-04-11T19:00:17.593Z,8.67
2023-04-11T19:02:46.098Z,8.60
2023-04-11T19:05:14.006Z,8.46
2023-04-11T19:07:42.012Z,8.35
2023-04-11T19:10:09.820Z,8.30
2023-04-11T19:12:37.250Z,8.24
2023-04-11T19:15:06.669Z,8.13
2023-04-11T19:17:38.787Z,8.09
2023-04-11T19:20:16.636Z,7.95
2023-04-11T19:22:43.416Z,7.94
2023-04-11T19:25:11.365Z,7.86
2023-04-11T19:27:42.541Z,7.77
2023-04-11T19:30:10.508Z,7.64
2023-04-11T19:32:40.879Z,7.57
2023-04-11T19:35:10.365Z,7.56
2023-04-11T19:37:37.799Z,7.44
2023-04-11T19:40:08.296Z,7.38
2023-04-11T19:42:37.259Z,7.34
2023-04-11T19:45:04.806Z,7.28
2023-04-11T19:47:31.753Z,7.20
2023-04-11T19:50:00.898Z,7.15
2023-04-11T19:52:27.854Z,7.13
2023-04-11T19:54:56.545Z,7.11
2023-04-11T19:57:24.822Z,7.04
2023-04-11T19:59:51.454Z,7.02
2023-04-11T20:02:18.033Z,6.85
2023-04-11T20:04:45.947Z,6.77
2023-04-11T20:07:13.548Z,6.63
2023-04-11T20:09:40.102Z,6.63
2023-04-11T20:12:07.290Z,6.51
2023-04-11T20:14:34.111Z,6.47
2023-04-11T20:17:00.924Z,6.50
2023-04-11T20:19:29.782Z,6.48
2023-04-11T20:21:56.516Z,6.44
2023-04-11T20:24:23.903Z,6.24
2023-04-11T20:26:51.216Z,6.30
2023-04-11T20:29:18.294Z,6.19
2023-04-11T20:31:45.041Z,6.23
2023-04-11T20:34:11.774Z,6.07
2023-04-11T20:36:38.670Z,6.04
2023-04-11T20:39:05.353Z,5.93
2023-04-11T20:41:32.401Z,5.88
2023-04-11T20:43:59.716Z,5.83
2023-04-11T20:46:29.854Z,5.83
2023-04-11T20:48:56.616Z,5.78
2023-04-11T20:51:23.336Z,5.79
2023-04-11T20:53:49.841Z,5.76
2023-04-11T20:56:16.389Z,5.68
2023-04-11T20:58:42.939Z,5.63
2023-04-11T21:01:09.488Z,5.61
2023-04-11T21:03:39.121Z,5.50
2023-04-11T21:06:07.566Z,5.42
2023-04-11T21:08:37.473Z,5.45
2023-04-11T21:11:05.082Z,5.42
2023-04-11T21:13:31.620Z,5.13
2023-04-11T21:15:58.792Z,5.32
2023-04-11T21:18:25.661Z,5.07
2023-04-11T21:20:52.213Z,5.24
2023-04-11T21:23:18.763Z,5.21
2023-04-11T21:25:45.308Z,5.16
2023-04-11T21:28:11.923Z,5.16
2023-04-11T21:30:39.607Z,5.10
2023-04-11T21:33:06.250Z,5.06
2023-04-11T21:35:32.890Z,4.96
2023-04-11T21:37:59.417Z,5.02
2023-04-11T21:40:25.945Z,4.92
2023-04-11T21:42:52.460Z,4.99
2023-04-11T21:45:18.994Z,4.86
2023-04-11T21:47:49.162Z,4.92
2023-04-11T21:50:15.734Z,4.87
2023-04-11T21:52:43.523Z,4.79
2023-04-11T21:55:11.593Z,4.77
2023-04-11T21:57:38.106Z,4.81
2023-04-11T22:00:06.609Z,4.74
2023-04-11T22:02:33.279Z,4.81
2023-04-11T22:05:06.231Z,4.77
2023-04-11T22:07:38.434Z,4.71
2023-04-11T22:10:10.060Z,4.73
2023-04-11T22:12:36.989Z,4.69
2023-04-11T22:15:05.322Z,4.63
2023-04-11T22:17:32.434Z,4.70
2023-04-11T22:19:59.032Z,4.70
2023-04-11T22:22:30.259Z,4.60
2023-04-11T22:24:59.953Z,4.66
2023-04-11T22:27:27.490Z,4.64
2023-04-11T22:29:56.757Z,4.52
2023-04-11T22:32:23.942Z,4.56
2023-04-11T22:34:50.837Z,4.59
2023-04-11T22:37:17.506Z,4.46
2023-04-11T22:39:44.035Z,4.51
2023-04-11T22:42:11.701Z,4.54
2023-04-11T22:44:38.293Z,4.50
2023-04-11T22:47:07.353Z,4.51
2023-04-11T22:49:42.195Z,4.52
2023-04-11T22:52:14.172Z,4.46
2023-04-11T22:54:42.087Z,4.45
2023-04-11T22:57:08.650Z,4.51
2023-04-11T22:59:35.185Z,4.51
2023-04-11T23:02:01.860Z,4.51
2023-04-11T23:04:28.572Z,4.47
2023-04-11T23:06:55.174Z,4.51
2023-04-11T23:09:21.915Z,4.46
2023-04-11T23:11:48.988Z,4.44
2023-04-11T23:14:18.288Z,4.46
2023-04-11T23:16:45.101Z,4.48
2023-04-11T23:19:12.093Z,4.49
2023-04-11T23:21:38.610Z,4.54
2023-04-11T23:24:07.083Z,4.59
2023-04-11T23:26:33.804Z,4.56
2023-04-11T23:29:01.638Z,4.58
2023-04-11T23:31:28.179Z,4.63
2023-04-11T23:33:55.781Z,4.62
2023-04-11T23:36:22.866Z,4.59
2023-04-11T23:38:49.432Z,4.64
2023-04-11T23:41:15.935Z,4.71
2023-04-11T23:43:42.523Z,4.77
2023-04-11T23:46:09.146Z,4.73
2023-04-11T23:48:35.981Z,4.75
2023-04-11T23:51:02.560Z,4.75
2023-04-11T23:53:29.107Z,4.81
2023-04-11T23:55:55.784Z,4.87
2023-04-11T23:58:22.302Z,4.90
